sensor_id;sensor_type;location;lat;lon;timestamp;P1;durP1;ratioP1;P2;durP2;ratioP2
70416;SDS011;57839;51.332;12.410;2023-04-08T00:00:18;5.93;;;5.32;;
70416;SDS011;57839;51.332;12.410;2023-04-08T00:02:44;5.65;;;5.00;;
70416;SDS011;57839;51.332;12.410;2023-04-08T00:05:10;5.45;;;4.88;;
70416;SDS011;57839;51.332;12.410;2023-04-08T00:07:35;5.35;;;4.85;;
70416;SDS011;57839;51.332;12.410;2023-04-08T00:10:01;5.25;;;4.75;;
70416;SDS011;57839;51.332;12.410;2023-04-08T00:12:27;5.30;;;4.80;;
70416;SDS011;57839;51.332;12.410;2023-04-08T00:14:54;5.20;;;4.65;;
70416;SDS011;57839;51.332;12.410;2023-04-08T00:17:20;6.35;;;5.43;;
70416;SDS011;57839;51.332;12.410;2023-04-08T00:19:46;5.65;;;5.03;;
70416;SDS011;57839;51.332;12.410;2023-04-08T00:22:14;5.30;;;4.75;;
70416;SDS011;57839;51.332;12.410;2023-04-08T00:24:40;5.80;;;4.35;;
70416;SDS011;57839;51.332;12.410;2023-04-08T00:27:06;5.55;;;4.97;;
70416;SDS011;57839;51.332;12.410;2023-04-08T00:29:31;4.78;;;4.28;;
70416;SDS011;57839;51.332;12.410;2023-04-08T00:31:57;5.28;;;4.78;;
70416;SDS011;57839;51.332;12.410;2023-04-08T00:34:22;5.78;;;4.63;;
70416;SDS011;57839;51.332;12.410;2023-04-08T00:36:48;5.45;;;4.95;;
70416;SDS011;57839;51.332;12.410;2023-04-08T00:39:14;6.03;;;4.90;;
70416;SDS011;57839;51.332;12.410;2023-04-08T00:41:40;5.05;;;4.43;;
70416;SDS011;57839;51.332;12.410;2023-04-08T00:44:05;5.40;;;4.85;;
70416;SDS011;57839;51.332;12.410;2023-04-08T00:46:35;5.75;;;4.75;;
70416;SDS011;57839;51.332;12.410;2023-04-08T00:49:01;6.10;;;4.63;;
70416;SDS011;57839;51.332;12.410;2023-04-08T00:51:28;5.60;;;5.00;;
70416;SDS011;57839;51.332;12.410;2023-04-08T00:53:55;6.60;;;5.15;;
70416;SDS011;57839;51.332;12.410;2023-04-08T00:56:21;5.68;;;4.47;;
70416;SDS011;57839;51.332;12.410;2023-04-08T00:58:47;5.20;;;4.72;;
70416;SDS011;57839;51.332;12.410;2023-04-08T01:01:33;4.70;;;4.20;;
70416;SDS011;57839;51.332;12.410;2023-04-08T01:09:47;5.95;;;4.70;;
70416;SDS011;57839;51.332;12.410;2023-04-08T01:12:25;4.90;;;4.40;;
70416;SDS011;57839;51.332;12.410;2023-04-08T01:14:59;5.82;;;4.38;;
70416;SDS011;57839;51.332;12.410;2023-04-08T01:17:29;4.60;;;4.20;;
70416;SDS011;57839;51.332;12.410;2023-04-08T01:19:55;4.80;;;4.40;;
70416;SDS011;57839;51.332;12.410;2023-04-08T01:25:08;5.35;;;4.30;;
70416;SDS011;57839;51.332;12.410;2023-04-08T01:27:37;4.53;;;4.10;;
70416;SDS011;57839;51.332;12.410;2023-04-08T01:30:03;5.18;;;4.65;;
70416;SDS011;57839;51.332;12.410;2023-04-08T01:32:30;4.65;;;4.25;;
70416;SDS011;57839;51.332;12.410;2023-04-08T01:34:56;5.07;;;4.57;;
70416;SDS011;57839;51.332;12.410;2023-04-08T01:37:23;5.35;;;4.85;;
70416;SDS011;57839;51.332;12.410;2023-04-08T01:39:49;5.75;;;4.97;;
70416;SDS011;57839;51.332;12.410;2023-04-08T01:42:15;5.55;;;5.05;;
70416;SDS011;57839;51.332;12.410;2023-04-08T01:44:41;5.60;;;4.72;;
70416;SDS011;57839;51.332;12.410;2023-04-08T01:47:07;6.68;;;5.32;;
70416;SDS011;57839;51.332;12.410;2023-04-08T01:49:33;5.15;;;4.65;;
70416;SDS011;57839;51.332;12.410;2023-04-08T01:51:59;5.57;;;4.63;;
70416;SDS011;57839;51.332;12.410;2023-04-08T01:54:26;5.72;;;5.22;;
70416;SDS011;57839;51.332;12.410;2023-04-08T01:56:51;9.93;;;4.75;;
70416;SDS011;57839;51.332;12.410;2023-04-08T01:59:18;5.65;;;4.95;;
70416;SDS011;57839;51.332;12.410;2023-04-08T02:01:46;5.40;;;4.90;;
70416;SDS011;57839;51.332;12.410;2023-04-08T02:04:12;6.70;;;5.50;;
70416;SDS011;57839;51.332;12.410;2023-04-08T02:06:37;7.38;;;5.20;;
70416;SDS011;57839;51.332;12.410;2023-04-08T02:09:03;5.32;;;4.40;;
70416;SDS011;57839;51.332;12.410;2023-04-08T02:11:30;5.80;;;5.20;;
70416;SDS011;57839;51.332;12.410;2023-04-08T02:13:55;5.05;;;4.55;;
70416;SDS011;57839;51.332;12.410;2023-04-08T02:16:23;6.00;;;5.10;;
70416;SDS011;57839;51.332;12.410;2023-04-08T02:18:54;5.95;;;5.18;;
70416;SDS011;57839;51.332;12.410;2023-04-08T02:21:26;5.50;;;4.88;;
70416;SDS011;57839;51.332;12.410;2023-04-08T02:23:57;4.75;;;4.25;;
70416;SDS011;57839;51.332;12.410;2023-04-08T02:26:23;4.65;;;4.15;;
70416;SDS011;57839;51.332;12.410;2023-04-08T02:28:50;6.22;;;5.25;;
70416;SDS011;57839;51.332;12.410;2023-04-08T02:31:17;5.70;;;4.80;;
70416;SDS011;57839;51.332;12.410;2023-04-08T02:33:43;5.43;;;4.80;;
70416;SDS011;57839;51.332;12.410;2023-04-08T02:36:08;7.03;;;5.40;;
70416;SDS011;57839;51.332;12.410;2023-04-08T02:38:35;6.22;;;4.95;;
70416;SDS011;57839;51.332;12.410;2023-04-08T02:41:01;5.85;;;5.25;;
70416;SDS011;57839;51.332;12.410;2023-04-08T02:43:26;7.80;;;5.57;;
70416;SDS011;57839;51.332;12.410;2023-04-08T02:45:58;6.80;;;5.72;;
70416;SDS011;57839;51.332;12.410;2023-04-08T02:48:28;10.65;;;6.22;;
70416;SDS011;57839;51.332;12.410;2023-04-08T02:50:54;7.10;;;5.28;;
70416;SDS011;57839;51.332;12.410;2023-04-08T02:53:21;6.45;;;4.90;;
70416;SDS011;57839;51.332;12.410;2023-04-08T02:55:47;7.40;;;5.88;;
70416;SDS011;57839;51.332;12.410;2023-04-08T02:58:13;6.85;;;5.50;;
70416;SDS011;57839;51.332;12.410;2023-04-08T03:00:39;7.00;;;5.75;;
70416;SDS011;57839;51.332;12.410;2023-04-08T03:03:05;7.18;;;5.60;;
70416;SDS011;57839;51.332;12.410;2023-04-08T03:05:31;7.68;;;6.13;;
70416;SDS011;57839;51.332;12.410;2023-04-08T03:07:57;7.60;;;6.30;;
70416;SDS011;57839;51.332;12.410;2023-04-08T03:10:23;8.52;;;6.30;;
70416;SDS011;57839;51.332;12.410;2023-04-08T03:12:48;7.45;;;5.53;;
70416;SDS011;57839;51.332;12.410;2023-04-08T03:15:14;7.88;;;5.88;;
70416;SDS011;57839;51.332;12.410;2023-04-08T03:17:40;8.20;;;6.43;;
70416;SDS011;57839;51.332;12.410;2023-04-08T03:20:05;6.55;;;5.85;;
70416;SDS011;57839;51.332;12.410;2023-04-08T03:22:32;7.60;;;6.35;;
70416;SDS011;57839;51.332;12.410;2023-04-08T03:24:58;7.90;;;6.78;;
70416;SDS011;57839;51.332;12.410;2023-04-08T03:27:24;7.20;;;6.28;;
70416;SDS011;57839;51.332;12.410;2023-04-08T03:29:50;7.70;;;6.47;;
70416;SDS011;57839;51.332;12.410;2023-04-08T03:32:17;8.60;;;6.75;;
70416;SDS011;57839;51.332;12.410;2023-04-08T03:34:43;8.88;;;6.30;;
70416;SDS011;57839;51.332;12.410;2023-04-08T03:37:08;7.97;;;6.50;;
70416;SDS011;57839;51.332;12.410;2023-04-08T03:39:34;7.32;;;5.93;;
70416;SDS011;57839;51.332;12.410;2023-04-08T03:42:00;8.27;;;6.35;;
70416;SDS011;57839;51.332;12.410;2023-04-08T03:44:27;8.48;;;6.43;;
70416;SDS011;57839;51.332;12.410;2023-04-08T03:46:53;7.95;;;6.30;;
70416;SDS011;57839;51.332;12.410;2023-04-08T03:49:18;9.10;;;6.80;;
70416;SDS011;57839;51.332;12.410;2023-04-08T03:51:44;10.25;;;6.80;;
70416;SDS011;57839;51.332;12.410;2023-04-08T03:54:09;9.30;;;7.03;;
70416;SDS011;57839;51.332;12.410;2023-04-08T03:56:35;9.75;;;6.53;;
70416;SDS011;57839;51.332;12.410;2023-04-08T03:59:01;10.73;;;7.78;;
70416;SDS011;57839;51.332;12.410;2023-04-08T04:01:26;9.93;;;7.43;;
70416;SDS011;57839;51.332;12.410;2023-04-08T04:03:53;7.57;;;6.05;;
70416;SDS011;57839;51.332;12.410;2023-04-08T04:06:18;8.35;;;6.70;;
70416;SDS011;57839;51.332;12.410;2023-04-08T04:08:44;9.88;;;7.32;;
70416;SDS011;57839;51.332;12.410;2023-04-08T04:11:10;7.45;;;6.15;;
70416;SDS011;57839;51.332;12.410;2023-04-08T04:13:36;8.25;;;6.10;;
70416;SDS011;57839;51.332;12.410;2023-04-08T04:16:01;10.18;;;6.97;;
70416;SDS011;57839;51.332;12.410;2023-04-08T04:18:27;8.20;;;6.10;;
70416;SDS011;57839;51.332;12.410;2023-04-08T04:20:53;8.07;;;6.40;;
70416;SDS011;57839;51.332;12.410;2023-04-08T04:23:18;8.13;;;5.93;;
70416;SDS011;57839;51.332;12.410;2023-04-08T04:25:45;7.57;;;5.85;;
70416;SDS011;57839;51.332;12.410;2023-04-08T04:28:10;6.43;;;5.40;;
70416;SDS011;57839;51.332;12.410;2023-04-08T04:30:39;7.05;;;5.97;;
70416;SDS011;57839;51.332;12.410;2023-04-08T04:33:05;7.53;;;6.30;;
70416;SDS011;57839;51.332;12.410;2023-04-08T04:35:31;7.47;;;5.97;;
70416;SDS011;57839;51.332;12.410;2023-04-08T04:37:57;6.40;;;5.47;;
70416;SDS011;57839;51.332;12.410;2023-04-08T04:40:22;7.32;;;5.53;;
70416;SDS011;57839;51.332;12.410;2023-04-08T04:42:48;6.82;;;5.18;;
70416;SDS011;57839;51.332;12.410;2023-04-08T04:45:14;9.30;;;6.15;;
70416;SDS011;57839;51.332;12.410;2023-04-08T04:47:40;6.47;;;5.13;;
70416;SDS011;57839;51.332;12.410;2023-04-08T04:50:05;9.65;;;5.47;;
70416;SDS011;57839;51.332;12.410;2023-04-08T04:52:31;10.07;;;5.82;;
70416;SDS011;57839;51.332;12.410;2023-04-08T04:54:57;9.43;;;6.20;;
70416;SDS011;57839;51.332;12.410;2023-04-08T04:57:23;7.50;;;5.57;;
70416;SDS011;57839;51.332;12.410;2023-04-08T04:59:49;6.80;;;4.95;;
70416;SDS011;57839;51.332;12.410;2023-04-08T05:02:15;5.25;;;4.47;;
70416;SDS011;57839;51.332;12.410;2023-04-08T05:04:40;7.13;;;5.40;;
70416;SDS011;57839;51.332;12.410;2023-04-08T05:07:06;7.50;;;5.18;;
70416;SDS011;57839;51.332;12.410;2023-04-08T05:09:32;5.35;;;4.82;;
70416;SDS011;57839;51.332;12.410;2023-04-08T05:11:57;8.38;;;6.07;;
70416;SDS011;57839;51.332;12.410;2023-04-08T05:14:23;6.75;;;5.43;;
70416;SDS011;57839;51.332;12.410;2023-04-08T05:16:49;5.22;;;4.45;;
70416;SDS011;57839;51.332;12.410;2023-04-08T05:19:14;6.90;;;5.28;;
70416;SDS011;57839;51.332;12.410;2023-04-08T05:21:40;6.45;;;5.68;;
70416;SDS011;57839;51.332;12.410;2023-04-08T05:24:06;5.95;;;5.35;;
70416;SDS011;57839;51.332;12.410;2023-04-08T05:26:31;5.80;;;5.03;;
70416;SDS011;57839;51.332;12.410;2023-04-08T05:28:57;6.57;;;5.88;;
70416;SDS011;57839;51.332;12.410;2023-04-08T05:31:26;8.23;;;5.55;;
70416;SDS011;57839;51.332;12.410;2023-04-08T05:33:52;9.63;;;6.50;;
70416;SDS011;57839;51.332;12.410;2023-04-08T05:36:17;7.88;;;6.07;;
70416;SDS011;57839;51.332;12.410;2023-04-08T05:38:43;6.65;;;5.63;;
70416;SDS011;57839;51.332;12.410;2023-04-08T05:41:09;7.82;;;6.20;;
70416;SDS011;57839;51.332;12.410;2023-04-08T05:43:35;7.07;;;5.53;;
70416;SDS011;57839;51.332;12.410;2023-04-08T05:46:07;7.60;;;5.82;;
70416;SDS011;57839;51.332;12.410;2023-04-08T05:48:33;7.38;;;5.70;;
70416;SDS011;57839;51.332;12.410;2023-04-08T05:50:59;8.07;;;5.90;;
70416;SDS011;57839;51.332;12.410;2023-04-08T05:53:25;6.57;;;5.28;;
70416;SDS011;57839;51.332;12.410;2023-04-08T05:55:50;8.40;;;5.65;;
70416;SDS011;57839;51.332;12.410;2023-04-08T05:58:16;7.70;;;5.63;;
70416;SDS011;57839;51.332;12.410;2023-04-08T06:00:41;6.80;;;5.28;;
70416;SDS011;57839;51.332;12.410;2023-04-08T06:03:09;7.38;;;5.40;;
70416;SDS011;57839;51.332;12.410;2023-04-08T06:05:35;6.05;;;5.22;;
70416;SDS011;57839;51.332;12.410;2023-04-08T06:08:01;7.03;;;5.35;;
70416;SDS011;57839;51.332;12.410;2023-04-08T06:10:26;5.93;;;4.75;;
70416;SDS011;57839;51.332;12.410;2023-04-08T06:12:52;6.72;;;5.22;;
70416;SDS011;57839;51.332;12.410;2023-04-08T06:15:18;9.35;;;6.72;;
70416;SDS011;57839;51.332;12.410;2023-04-08T06:17:43;7.75;;;5.68;;
70416;SDS011;57839;51.332;12.410;2023-04-08T06:20:09;8.18;;;6.50;;
70416;SDS011;57839;51.332;12.410;2023-04-08T06:22:35;9.70;;;6.53;;
70416;SDS011;57839;51.332;12.410;2023-04-08T06:25:01;9.10;;;6.47;;
70416;SDS011;57839;51.332;12.410;2023-04-08T06:27:27;9.75;;;6.85;;
70416;SDS011;57839;51.332;12.410;2023-04-08T06:29:52;10.07;;;7.07;;
70416;SDS011;57839;51.332;12.410;2023-04-08T06:32:19;11.50;;;7.95;;
70416;SDS011;57839;51.332;12.410;2023-04-08T06:34:45;14.35;;;9.52;;
70416;SDS011;57839;51.332;12.410;2023-04-08T06:37:12;12.98;;;8.35;;
70416;SDS011;57839;51.332;12.410;2023-04-08T06:39:37;13.77;;;8.23;;
70416;SDS011;57839;51.332;12.410;2023-04-08T06:42:03;14.73;;;8.57;;
70416;SDS011;57839;51.332;12.410;2023-04-08T06:44:29;11.35;;;7.50;;
70416;SDS011;57839;51.332;12.410;2023-04-08T06:46:55;12.88;;;8.15;;
70416;SDS011;57839;51.332;12.410;2023-04-08T06:49:20;12.65;;;8.20;;
70416;SDS011;57839;51.332;12.410;2023-04-08T06:51:46;13.65;;;8.32;;
70416;SDS011;57839;51.332;12.410;2023-04-08T06:54:11;14.00;;;8.95;;
70416;SDS011;57839;51.332;12.410;2023-04-08T06:56:37;14.05;;;9.15;;
70416;SDS011;57839;51.332;12.410;2023-04-08T06:59:03;14.05;;;8.82;;
70416;SDS011;57839;51.332;12.410;2023-04-08T07:01:29;15.48;;;9.50;;
70416;SDS011;57839;51.332;12.410;2023-04-08T07:03:56;16.23;;;9.95;;
70416;SDS011;57839;51.332;12.410;2023-04-08T07:06:22;15.82;;;9.80;;
70416;SDS011;57839;51.332;12.410;2023-04-08T07:08:48;20.75;;;11.15;;
70416;SDS011;57839;51.332;12.410;2023-04-08T07:11:13;17.08;;;10.30;;
70416;SDS011;57839;51.332;12.410;2023-04-08T07:13:39;18.50;;;11.32;;
70416;SDS011;57839;51.332;12.410;2023-04-08T07:16:05;18.42;;;10.98;;
70416;SDS011;57839;51.332;12.410;2023-04-08T07:18:31;18.27;;;11.32;;
70416;SDS011;57839;51.332;12.410;2023-04-08T07:20:57;18.38;;;10.82;;
70416;SDS011;57839;51.332;12.410;2023-04-08T07:23:22;20.33;;;11.50;;
70416;SDS011;57839;51.332;12.410;2023-04-08T07:25:48;42.63;;;26.10;;
70416;SDS011;57839;51.332;12.410;2023-04-08T07:28:14;24.17;;;14.13;;
70416;SDS011;57839;51.332;12.410;2023-04-08T07:30:39;22.25;;;13.43;;
70416;SDS011;57839;51.332;12.410;2023-04-08T07:33:05;20.10;;;12.27;;
70416;SDS011;57839;51.332;12.410;2023-04-08T07:35:32;19.33;;;12.02;;
70416;SDS011;57839;51.332;12.410;2023-04-08T07:37:58;22.92;;;14.02;;
70416;SDS011;57839;51.332;12.410;2023-04-08T07:40:23;19.42;;;12.45;;
70416;SDS011;57839;51.332;12.410;2023-04-08T07:42:49;20.48;;;13.02;;
70416;SDS011;57839;51.332;12.410;2023-04-08T07:45:15;19.63;;;12.73;;
70416;SDS011;57839;51.332;12.410;2023-04-08T07:47:40;25.67;;;15.27;;
70416;SDS011;57839;51.332;12.410;2023-04-08T07:50:09;23.30;;;14.07;;
70416;SDS011;57839;51.332;12.410;2023-04-08T07:52:35;23.73;;;13.90;;
70416;SDS011;57839;51.332;12.410;2023-04-08T07:55:00;22.80;;;14.73;;
70416;SDS011;57839;51.332;12.410;2023-04-08T07:57:26;22.38;;;14.13;;
70416;SDS011;57839;51.332;12.410;2023-04-08T07:59:52;21.25;;;14.10;;
70416;SDS011;57839;51.332;12.410;2023-04-08T08:02:17;25.38;;;15.05;;
70416;SDS011;57839;51.332;12.410;2023-04-08T08:04:43;148.27;;;91.13;;
70416;SDS011;57839;51.332;12.410;2023-04-08T08:07:09;57.42;;;35.40;;
70416;SDS011;57839;51.332;12.410;2023-04-08T08:09:35;29.25;;;17.98;;
70416;SDS011;57839;51.332;12.410;2023-04-08T08:12:04;24.48;;;15.93;;
70416;SDS011;57839;51.332;12.410;2023-04-08T08:14:30;25.20;;;16.45;;
70416;SDS011;57839;51.332;12.410;2023-04-08T08:16:56;24.83;;;16.13;;
70416;SDS011;57839;51.332;12.410;2023-04-08T08:19:22;24.85;;;15.35;;
70416;SDS011;57839;51.332;12.410;2023-04-08T08:21:47;22.65;;;15.55;;
70416;SDS011;57839;51.332;12.410;2023-04-08T08:24:13;27.45;;;16.88;;
70416;SDS011;57839;51.332;12.410;2023-04-08T08:26:39;29.55;;;17.85;;
70416;SDS011;57839;51.332;12.410;2023-04-08T08:29:04;28.02;;;18.13;;
70416;SDS011;57839;51.332;12.410;2023-04-08T08:31:35;26.85;;;17.67;;
70416;SDS011;57839;51.332;12.410;2023-04-08T08:34:01;28.80;;;17.80;;
70416;SDS011;57839;51.332;12.410;2023-04-08T08:36:27;27.05;;;17.45;;
70416;SDS011;57839;51.332;12.410;2023-04-08T08:38:53;25.85;;;17.45;;
70416;SDS011;57839;51.332;12.410;2023-04-08T08:41:19;25.77;;;16.98;;
70416;SDS011;57839;51.332;12.410;2023-04-08T08:43:47;27.98;;;17.92;;
70416;SDS011;57839;51.332;12.410;2023-04-08T08:46:14;30.45;;;19.33;;
70416;SDS011;57839;51.332;12.410;2023-04-08T08:48:42;29.33;;;19.08;;
70416;SDS011;57839;51.332;12.410;2023-04-08T08:51:08;31.92;;;20.23;;
70416;SDS011;57839;51.332;12.410;2023-04-08T08:53:35;31.73;;;19.98;;
70416;SDS011;57839;51.332;12.410;2023-04-08T08:56:00;32.72;;;20.80;;
70416;SDS011;57839;51.332;12.410;2023-04-08T08:58:26;31.30;;;20.15;;
70416;SDS011;57839;51.332;12.410;2023-04-08T09:00:53;33.13;;;20.20;;
70416;SDS011;57839;51.332;12.410;2023-04-08T09:03:19;30.20;;;18.90;;
70416;SDS011;57839;51.332;12.410;2023-04-08T09:08:29;28.95;;;18.58;;
70416;SDS011;57839;51.332;12.410;2023-04-08T09:11:09;30.92;;;19.83;;
70416;SDS011;57839;51.332;12.410;2023-04-08T09:13:39;28.77;;;18.33;;
70416;SDS011;57839;51.332;12.410;2023-04-08T09:16:06;31.70;;;19.23;;
70416;SDS011;57839;51.332;12.410;2023-04-08T09:18:33;31.67;;;19.63;;
70416;SDS011;57839;51.332;12.410;2023-04-08T09:21:01;30.33;;;19.10;;
70416;SDS011;57839;51.332;12.410;2023-04-08T09:23:47;84.85;;;47.45;;
70416;SDS011;57839;51.332;12.410;2023-04-08T09:26:20;33.55;;;21.20;;
70416;SDS011;57839;51.332;12.410;2023-04-08T09:31:23;28.80;;;19.55;;
70416;SDS011;57839;51.332;12.410;2023-04-08T09:33:51;30.15;;;19.83;;
70416;SDS011;57839;51.332;12.410;2023-04-08T09:36:18;28.85;;;18.50;;
70416;SDS011;57839;51.332;12.410;2023-04-08T09:38:44;28.38;;;18.67;;
70416;SDS011;57839;51.332;12.410;2023-04-08T09:41:14;31.63;;;19.55;;
70416;SDS011;57839;51.332;12.410;2023-04-08T09:43:57;29.85;;;19.17;;
70416;SDS011;57839;51.332;12.410;2023-04-08T09:46:28;29.77;;;19.55;;
70416;SDS011;57839;51.332;12.410;2023-04-08T09:49:28;33.53;;;21.58;;
70416;SDS011;57839;51.332;12.410;2023-04-08T09:55:08;30.33;;;20.52;;
70416;SDS011;57839;51.332;12.410;2023-04-08T09:57:40;29.63;;;18.95;;
70416;SDS011;57839;51.332;12.410;2023-04-08T10:00:14;31.25;;;19.77;;
70416;SDS011;57839;51.332;12.410;2023-04-08T10:05:09;31.85;;;19.52;;
70416;SDS011;57839;51.332;12.410;2023-04-08T10:07:37;28.85;;;19.92;;
70416;SDS011;57839;51.332;12.410;2023-04-08T10:10:04;30.40;;;20.15;;
70416;SDS011;57839;51.332;12.410;2023-04-08T10:12:31;31.60;;;20.35;;
70416;SDS011;57839;51.332;12.410;2023-04-08T10:22:58;34.72;;;22.95;;
70416;SDS011;57839;51.332;12.410;2023-04-08T10:25:34;34.90;;;21.38;;
70416;SDS011;57839;51.332;12.410;2023-04-08T10:35:53;34.33;;;21.90;;
70416;SDS011;57839;51.332;12.410;2023-04-08T10:38:20;31.35;;;20.25;;
70416;SDS011;57839;51.332;12.410;2023-04-08T10:40:46;36.65;;;23.13;;
70416;SDS011;57839;51.332;12.410;2023-04-08T10:43:13;35.17;;;21.65;;
70416;SDS011;57839;51.332;12.410;2023-04-08T10:45:40;30.88;;;20.52;;
70416;SDS011;57839;51.332;12.410;2023-04-08T10:48:39;34.80;;;22.90;;
70416;SDS011;57839;51.332;12.410;2023-04-08T10:51:01;31.58;;;21.27;;
70416;SDS011;57839;51.332;12.410;2023-04-08T10:53:34;32.72;;;20.35;;
70416;SDS011;57839;51.332;12.410;2023-04-08T10:56:07;30.90;;;20.55;;
70416;SDS011;57839;51.332;12.410;2023-04-08T10:58:33;32.83;;;22.33;;
70416;SDS011;57839;51.332;12.410;2023-04-08T11:01:02;31.23;;;20.65;;
70416;SDS011;57839;51.332;12.410;2023-04-08T11:03:31;29.63;;;19.40;;
70416;SDS011;57839;51.332;12.410;2023-04-08T11:05:58;29.85;;;20.20;;
70416;SDS011;57839;51.332;12.410;2023-04-08T11:08:28;33.33;;;21.05;;
70416;SDS011;57839;51.332;12.410;2023-04-08T11:10:54;32.58;;;21.63;;
70416;SDS011;57839;51.332;12.410;2023-04-08T11:13:21;32.20;;;21.50;;
70416;SDS011;57839;51.332;12.410;2023-04-08T11:15:47;29.85;;;19.10;;
70416;SDS011;57839;51.332;12.410;2023-04-08T11:18:14;29.52;;;19.75;;
70416;SDS011;57839;51.332;12.410;2023-04-08T11:20:40;32.50;;;20.67;;
70416;SDS011;57839;51.332;12.410;2023-04-08T11:23:12;34.10;;;21.80;;
70416;SDS011;57839;51.332;12.410;2023-04-08T11:25:38;34.70;;;21.10;;
70416;SDS011;57839;51.332;12.410;2023-04-08T11:28:05;35.35;;;22.45;;
70416;SDS011;57839;51.332;12.410;2023-04-08T11:30:31;33.75;;;21.15;;
70416;SDS011;57839;51.332;12.410;2023-04-08T11:32:57;31.05;;;19.52;;
70416;SDS011;57839;51.332;12.410;2023-04-08T11:35:23;31.25;;;21.13;;
70416;SDS011;57839;51.332;12.410;2023-04-08T11:37:48;28.55;;;18.40;;
70416;SDS011;57839;51.332;12.410;2023-04-08T11:40:19;26.90;;;17.48;;
70416;SDS011;57839;51.332;12.410;2023-04-08T11:42:45;28.90;;;17.98;;
70416;SDS011;57839;51.332;12.410;2023-04-08T11:45:11;28.92;;;18.60;;
70416;SDS011;57839;51.332;12.410;2023-04-08T11:47:38;24.70;;;16.83;;
70416;SDS011;57839;51.332;12.410;2023-04-08T11:50:04;24.27;;;17.52;;
70416;SDS011;57839;51.332;12.410;2023-04-08T11:52:46;27.13;;;17.30;;
70416;SDS011;57839;51.332;12.410;2023-04-08T11:55:29;26.52;;;17.38;;
70416;SDS011;57839;51.332;12.410;2023-04-08T11:57:56;23.25;;;15.88;;
70416;SDS011;57839;51.332;12.410;2023-04-08T12:00:27;26.25;;;17.52;;
70416;SDS011;57839;51.332;12.410;2023-04-08T12:02:53;23.65;;;16.75;;
70416;SDS011;57839;51.332;12.410;2023-04-08T12:05:18;57.67;;;37.03;;
70416;SDS011;57839;51.332;12.410;2023-04-08T12:07:44;27.83;;;18.70;;
70416;SDS011;57839;51.332;12.410;2023-04-08T12:10:10;24.92;;;17.20;;
70416;SDS011;57839;51.332;12.410;2023-04-08T12:12:36;21.15;;;15.60;;
70416;SDS011;57839;51.332;12.410;2023-04-08T12:15:03;22.85;;;15.88;;
70416;SDS011;57839;51.332;12.410;2023-04-08T12:17:29;23.58;;;15.90;;
70416;SDS011;57839;51.332;12.410;2023-04-08T12:19:54;24.17;;;17.85;;
70416;SDS011;57839;51.332;12.410;2023-04-08T12:22:21;24.10;;;17.63;;
70416;SDS011;57839;51.332;12.410;2023-04-08T12:27:23;23.52;;;16.77;;
70416;SDS011;57839;51.332;12.410;2023-04-08T12:29:48;23.20;;;16.45;;
70416;SDS011;57839;51.332;12.410;2023-04-08T12:32:16;26.05;;;17.70;;
70416;SDS011;57839;51.332;12.410;2023-04-08T12:34:41;24.95;;;17.50;;
70416;SDS011;57839;51.332;12.410;2023-04-08T12:37:07;23.73;;;16.55;;
70416;SDS011;57839;51.332;12.410;2023-04-08T12:39:32;22.27;;;15.43;;
70416;SDS011;57839;51.332;12.410;2023-04-08T12:41:58;21.98;;;15.35;;
70416;SDS011;57839;51.332;12.410;2023-04-08T12:44:24;26.13;;;16.80;;
70416;SDS011;57839;51.332;12.410;2023-04-08T12:46:49;24.65;;;16.25;;
70416;SDS011;57839;51.332;12.410;2023-04-08T12:49:15;20.85;;;15.32;;
70416;SDS011;57839;51.332;12.410;2023-04-08T12:51:41;21.83;;;14.75;;
70416;SDS011;57839;51.332;12.410;2023-04-08T12:54:06;18.42;;;13.63;;
70416;SDS011;57839;51.332;12.410;2023-04-08T12:56:32;18.33;;;13.38;;
70416;SDS011;57839;51.332;12.410;2023-04-08T12:58:58;20.17;;;13.88;;
70416;SDS011;57839;51.332;12.410;2023-04-08T13:01:25;21.88;;;14.20;;
70416;SDS011;57839;51.332;12.410;2023-04-08T13:03:50;21.40;;;15.10;;
70416;SDS011;57839;51.332;12.410;2023-04-08T13:06:16;20.48;;;15.63;;
70416;SDS011;57839;51.332;12.410;2023-04-08T13:08:41;18.83;;;14.02;;
70416;SDS011;57839;51.332;12.410;2023-04-08T13:11:07;31.98;;;22.25;;
70416;SDS011;57839;51.332;12.410;2023-04-08T13:13:33;38.60;;;26.17;;
70416;SDS011;57839;51.332;12.410;2023-04-08T13:15:59;23.35;;;16.80;;
70416;SDS011;57839;51.332;12.410;2023-04-08T13:18:25;22.52;;;16.05;;
70416;SDS011;57839;51.332;12.410;2023-04-08T13:20:51;22.65;;;15.98;;
70416;SDS011;57839;51.332;12.410;2023-04-08T13:23:18;22.48;;;16.13;;
70416;SDS011;57839;51.332;12.410;2023-04-08T13:25:43;21.15;;;15.20;;
70416;SDS011;57839;51.332;12.410;2023-04-08T13:28:12;22.42;;;16.33;;
70416;SDS011;57839;51.332;12.410;2023-04-08T13:30:38;19.35;;;14.98;;
70416;SDS011;57839;51.332;12.410;2023-04-08T13:33:03;21.73;;;15.32;;
70416;SDS011;57839;51.332;12.410;2023-04-08T13:35:29;21.45;;;15.77;;
70416;SDS011;57839;51.332;12.410;2023-04-08T13:37:55;20.73;;;15.27;;
70416;SDS011;57839;51.332;12.410;2023-04-08T13:40:21;20.15;;;15.73;;
70416;SDS011;57839;51.332;12.410;2023-04-08T13:42:46;19.20;;;14.02;;
70416;SDS011;57839;51.332;12.410;2023-04-08T13:45:12;19.15;;;15.05;;
70416;SDS011;57839;51.332;12.410;2023-04-08T13:47:38;17.77;;;14.02;;
70416;SDS011;57839;51.332;12.410;2023-04-08T13:50:07;18.80;;;14.02;;
70416;SDS011;57839;51.332;12.410;2023-04-08T13:52:33;17.98;;;14.05;;
70416;SDS011;57839;51.332;12.410;2023-04-08T13:54:59;20.27;;;14.57;;
70416;SDS011;57839;51.332;12.410;2023-04-08T13:57:25;17.50;;;13.63;;
70416;SDS011;57839;51.332;12.410;2023-04-08T13:59:50;21.60;;;16.35;;
70416;SDS011;57839;51.332;12.410;2023-04-08T14:02:16;17.63;;;13.82;;
70416;SDS011;57839;51.332;12.410;2023-04-08T14:04:42;19.15;;;14.20;;
70416;SDS011;57839;51.332;12.410;2023-04-08T14:07:10;93.22;;;55.80;;
70416;SDS011;57839;51.332;12.410;2023-04-08T14:09:36;23.92;;;17.13;;
70416;SDS011;57839;51.332;12.410;2023-04-08T14:12:02;18.40;;;12.65;;
70416;SDS011;57839;51.332;12.410;2023-04-08T14:14:27;16.38;;;12.68;;
70416;SDS011;57839;51.332;12.410;2023-04-08T14:16:53;15.35;;;11.32;;
70416;SDS011;57839;51.332;12.410;2023-04-08T14:19:19;15.82;;;12.30;;
70416;SDS011;57839;51.332;12.410;2023-04-08T14:21:44;15.15;;;11.52;;
70416;SDS011;57839;51.332;12.410;2023-04-08T14:24:10;17.77;;;12.68;;
70416;SDS011;57839;51.332;12.410;2023-04-08T14:26:35;16.55;;;12.23;;
70416;SDS011;57839;51.332;12.410;2023-04-08T14:29:02;19.80;;;13.63;;
70416;SDS011;57839;51.332;12.410;2023-04-08T14:31:28;16.75;;;12.40;;
70416;SDS011;57839;51.332;12.410;2023-04-08T14:33:54;15.10;;;12.38;;
70416;SDS011;57839;51.332;12.410;2023-04-08T14:36:20;15.52;;;12.82;;
70416;SDS011;57839;51.332;12.410;2023-04-08T14:38:48;17.38;;;13.15;;
70416;SDS011;57839;51.332;12.410;2023-04-08T14:41:14;19.80;;;13.07;;
70416;SDS011;57839;51.332;12.410;2023-04-08T14:43:40;17.27;;;12.68;;
70416;SDS011;57839;51.332;12.410;2023-04-08T14:46:06;17.67;;;13.75;;
70416;SDS011;57839;51.332;12.410;2023-04-08T14:48:31;17.33;;;13.50;;
70416;SDS011;57839;51.332;12.410;2023-04-08T14:50:57;18.13;;;13.38;;
70416;SDS011;57839;51.332;12.410;2023-04-08T14:53:24;18.60;;;13.50;;
70416;SDS011;57839;51.332;12.410;2023-04-08T14:55:49;17.88;;;13.50;;